Time;durP1;ratioP1;P1;durP2;ratioP2;P2;SDS_P1;SDS_P2;PMS_P1;PMS_P2;Temp;Humidity;BMP_temperature;BMP_pressure;BME280_temperature;BME280_humidity;BME280_pressure;Samples;Min_cycle;Max_cycle;Signal;HPM_P1;HPM_P2
2022/09/19 00:02:02;;;;;;;13.98;2.20;;;11.20;99.90;;;;;;5043999;28;20040;-95
2022/09/19 00:04:32;;;;;;;13.00;2.55;;;11.20;99.90;;;;;;5030266;28;20615;-94
2022/09/19 00:06:59;;;;;;;12.43;2.00;;;11.20;99.90;;;;;;5035627;28;20167;-91
2022/09/19 00:09:31;;;;;;;13.88;2.20;;;11.10;99.90;;;;;;5054970;28;20206;-91
2022/09/19 00:11:57;;;;;;;12.70;2.78;;;11.10;99.90;;;;;;5034117;28;20069;-91
2022/09/19 00:14:25;;;;;;;15.02;2.38;;;11.10;99.90;;;;;;5038095;28;20041;-90
2022/09/19 00:17:07;;;;;;;11.57;2.20;;;11.10;99.90;;;;;;5058181;28;20072;-90
2022/09/19 00:19:33;;;;;;;13.48;2.67;;;11.20;99.90;;;;;;5042343;28;20111;-90
2022/09/19 00:22:00;;;;;;;14.25;2.42;;;11.10;99.90;;;;;;5024904;28;20143;-87
2022/09/19 00:27:13;;;;;;;9.23;2.08;;;11.10;99.90;;;;;;5044957;28;20044;-89
2022/09/19 00:29:41;;;;;;;13.15;2.50;;;11.10;99.90;;;;;;5037994;28;20042;-87
2022/09/19 00:32:11;;;;;;;13.10;2.72;;;11.10;99.90;;;;;;5061578;28;20036;-86
2022/09/19 00:34:41;;;;;;;8.73;2.28;;;11.10;99.90;;;;;;5058474;28;20029;-87
2022/09/19 00:37:08;;;;;;;12.50;2.60;;;11.20;99.90;;;;;;5066628;28;20047;-86
2022/09/19 00:39:33;;;;;;;16.92;2.25;;;11.10;99.90;;;;;;5074326;28;20466;-88
2022/09/19 00:41:59;;;;;;;15.63;2.15;;;11.10;99.90;;;;;;5093800;28;20043;-88
2022/09/19 00:44:25;;;;;;;9.80;2.00;;;11.10;99.90;;;;;;5071691;28;20071;-88
2022/09/19 00:46:57;;;;;;;11.80;2.00;;;11.10;99.90;;;;;;5097806;28;20385;-87
2022/09/19 00:49:27;;;;;;;8.05;1.80;;;11.10;99.90;;;;;;5075264;28;20036;-87
2022/09/19 00:51:56;;;;;;;21.65;2.30;;;11.10;99.90;;;;;;5087414;28;20038;-87
2022/09/19 00:54:29;;;;;;;12.18;2.28;;;11.10;99.90;;;;;;5107145;28;20060;-88
2022/09/19 00:56:57;;;;;;;18.42;2.05;;;11.10;99.90;;;;;;5068842;28;20593;-87
2022/09/19 00:59:26;;;;;;;14.07;2.42;;;11.10;99.90;;;;;;5082322;28;20043;-87
2022/09/19 01:01:54;;;;;;;10.00;1.80;;;11.10;99.90;;;;;;5079468;28;20502;-87
2022/09/19 01:04:27;;;;;;;9.80;2.00;;;11.10;99.90;;;;;;5065186;28;20043;-87
2022/09/19 01:07:03;;;;;;;10.18;1.90;;;11.10;99.90;;;;;;5059368;28;20047;-87
2022/09/19 01:09:47;;;;;;;11.18;2.00;;;11.10;99.90;;;;;;5078771;28;20051;-87
2022/09/19 01:12:16;;;;;;;10.77;2.10;;;11.00;99.90;;;;;;5058706;28;20086;-87
2022/09/19 01:14:56;;;;;;;11.05;1.80;;;11.00;99.90;;;;;;5075503;28;20036;-87
2022/09/19 01:17:45;;;;;;;10.73;2.00;;;10.90;99.90;;;;;;5069799;28;20494;-88
2022/09/19 01:20:31;;;;;;;11.15;1.90;;;10.90;99.90;;;;;;5085078;28;20043;-88
2022/09/19 01:23:15;;;;;;;12.38;2.08;;;10.90;99.90;;;;;;5092020;28;20036;-87
2022/09/19 01:26:22;;;;;;;11.25;2.15;;;10.90;99.90;;;;;;5085129;28;20077;-88
2022/09/19 01:28:57;;;;;;;10.30;1.80;;;10.90;99.90;;;;;;5069877;28;20106;-87
2022/09/19 01:31:33;;;;;;;15.13;2.10;;;11.00;99.90;;;;;;5084366;28;20043;-88
2022/09/19 01:34:12;;;;;;;11.23;1.80;;;11.00;99.90;;;;;;5076881;28;20314;-87
2022/09/19 01:37:05;;;;;;;10.57;1.63;;;11.00;99.90;;;;;;5088363;28;20040;-87
2022/09/19 01:39:34;;;;;;;12.45;2.33;;;10.90;99.90;;;;;;5046940;28;20060;-87
2022/09/19 01:42:01;;;;;;;15.10;2.35;;;11.00;99.90;;;;;;5045673;28;20047;-88
2022/09/19 01:44:28;;;;;;;10.00;1.88;;;11.00;99.90;;;;;;5025690;28;20047;-87
2022/09/19 01:47:13;;;;;;;16.85;2.03;;;11.00;99.90;;;;;;5043525;28;20036;-84
2022/09/19 01:49:58;;;;;;;7.30;1.45;;;10.90;99.90;;;;;;5056325;28;20070;-85
2022/09/19 01:52:48;;;;;;;9.55;2.00;;;10.90;99.90;;;;;;5054372;28;20076;-86
2022/09/19 01:55:59;;;;;;;15.27;1.67;;;10.90;99.90;;;;;;5051026;28;20559;-86
2022/09/19 01:58:57;;;;;;;14.07;1.80;;;10.90;99.90;;;;;;5029376;28;20048;-87
2022/09/19 02:01:44;;;;;;;12.07;1.92;;;10.90;99.90;;;;;;5068872;28;20105;-87
2022/09/19 02:04:41;;;;;;;11.32;1.90;;;10.90;99.90;;;;;;5054720;28;20037;-86
2022/09/19 02:07:15;;;;;;;;;;;10.90;99.90;;;;;;5040555;28;20055;-86
2022/09/19 02:10:05;;;;;;;12.93;2.08;;;10.80;99.90;;;;;;5051874;28;20078;-88
2022/09/19 02:12:35;;;;;;;14.80;1.95;;;10.80;99.90;;;;;;5053826;28;20037;-88
2022/09/19 02:15:03;;;;;;;8.35;1.88;;;10.80;99.90;;;;;;5061157;28;20039;-87
2022/09/19 02:17:44;;;;;;;13.80;1.98;;;10.80;99.90;;;;;;5027896;28;20043;-87
2022/09/19 02:20:16;;;;;;;12.10;2.00;;;10.80;99.90;;;;;;5062614;28;20040;-87
2022/09/19 02:22:50;;;;;;;10.82;2.10;;;10.80;99.90;;;;;;5062333;28;20037;-87
2022/09/19 02:25:22;;;;;;;12.40;2.17;;;10.80;99.90;;;;;;5060769;28;20120;-87
2022/09/19 02:27:56;;;;;;;16.88;2.25;;;10.80;99.90;;;;;;5043918;28;20044;-87
2022/09/19 02:30:22;;;;;;;18.40;2.50;;;10.80;99.90;;;;;;5050415;28;20032;-87
2022/09/19 02:32:50;;;;;;;14.40;2.40;;;10.70;99.90;;;;;;5048710;28;20111;-87
2022/09/19 02:35:34;;;;;;;12.40;2.38;;;10.70;99.90;;;;;;5052236;28;20496;-86
2022/09/19 02:38:14;;;;;;;9.45;2.10;;;10.80;99.90;;;;;;5063819;28;20056;-87
2022/09/19 02:41:05;;;;;;;9.73;2.58;;;10.80;99.90;;;;;;5059037;28;20083;-86
2022/09/19 02:44:14;;;;;;;13.27;2.30;;;10.70;99.90;;;;;;5049364;28;20124;-86
2022/09/19 02:46:56;;;;;;;10.70;2.53;;;10.70;99.90;;;;;;5050629;28;20080;-88
2022/09/19 02:49:47;;;;;;;15.07;2.33;;;10.70;99.90;;;;;;5064520;28;20291;-87
2022/09/19 02:52:20;;;;;;;15.02;2.65;;;10.70;99.90;;;;;;5071280;28;20036;-86
2022/09/19 02:54:50;;;;;;;10.30;1.83;;;10.70;99.90;;;;;;5068967;28;20021;-86
2022/09/19 02:57:19;;;;;;;11.82;1.90;;;11.30;99.90;;;;;;5079553;28;20028;-87
2022/09/19 02:59:49;;;;;;;13.73;2.55;;;10.60;99.90;;;;;;5060064;28;20504;-86
2022/09/19 03:02:22;;;;;;;14.65;2.50;;;10.60;99.90;;;;;;5055444;28;20040;-87
2022/09/19 03:04:55;;;;;;;17.95;2.58;;;10.70;99.90;;;;;;5038565;28;20036;-88
2022/09/19 03:07:27;;;;;;;11.13;2.63;;;10.70;99.90;;;;;;5059140;28;20040;-86
2022/09/19 03:10:10;;;;;;;14.00;2.08;;;10.90;99.90;;;;;;5050485;28;20120;-86
2022/09/19 03:12:58;;;;;;;11.38;1.92;;;10.60;99.90;;;;;;5053332;28;20032;-86
2022/09/19 03:15:36;;;;;;;11.90;2.42;;;10.60;99.90;;;;;;5051293;28;20552;-86
2022/09/19 03:18:05;;;;;;;14.88;2.20;;;10.60;99.90;;;;;;5050911;28;20044;-86
2022/09/19 03:20:36;;;;;;;12.48;2.03;;;10.60;99.90;;;;;;5043809;28;20067;-85
2022/09/19 03:23:04;;;;;;;14.77;2.17;;;10.60;99.90;;;;;;5025173;28;20044;-86
2022/09/19 03:25:30;;;;;;;12.05;2.22;;;10.50;99.90;;;;;;5057795;28;20547;-86
2022/09/19 03:27:57;;;;;;;11.60;2.03;;;10.60;99.90;;;;;;5056798;28;20041;-86
2022/09/19 03:30:23;;;;;;;11.05;1.95;;;10.60;99.90;;;;;;5009796;28;20045;-86
2022/09/19 03:32:49;;;;;;;12.00;1.85;;;10.60;99.90;;;;;;5010476;28;20043;-86
2022/09/19 03:35:15;;;;;;;17.88;2.38;;;10.60;99.90;;;;;;5036784;28;20045;-86
2022/09/19 03:37:41;;;;;;;9.55;1.80;;;10.50;99.90;;;;;;5044994;28;20056;-86
2022/09/19 03:40:07;;;;;;;15.13;1.92;;;10.50;99.90;;;;;;5056163;28;20048;-86
2022/09/19 03:42:34;;;;;;;14.68;1.95;;;10.50;99.90;;;;;;5054813;28;20071;-86
2022/09/19 03:45:01;;;;;;;13.25;2.03;;;10.50;99.90;;;;;;5043550;28;20127;-86
2022/09/19 03:47:27;;;;;;;11.60;2.22;;;10.50;99.90;;;;;;5075863;28;20048;-86
2022/09/19 03:49:52;;;;;;;16.33;2.20;;;10.50;99.90;;;;;;5055150;28;21523;-86
2022/09/19 03:52:19;;;;;;;10.27;2.35;;;10.50;99.90;;;;;;5047910;28;20039;-86
2022/09/19 03:54:45;;;;;;;10.70;1.88;;;10.50;99.90;;;;;;5080862;28;20036;-86
2022/09/19 03:57:14;;;;;;;14.50;2.05;;;10.50;99.90;;;;;;5047623;28;20040;-86
2022/09/19 03:59:41;;;;;;;11.38;1.98;;;10.50;99.90;;;;;;5057138;28;20048;-86
2022/09/19 04:02:08;;;;;;;13.55;1.80;;;10.60;99.90;;;;;;5076567;28;20099;-86
2022/09/19 04:04:34;;;;;;;10.30;1.80;;;10.40;99.90;;;;;;5053847;28;20040;-87
2022/09/19 04:07:01;;;;;;;8.20;2.00;;;10.40;99.90;;;;;;5038171;28;20078;-87
2022/09/19 04:09:27;;;;;;;10.90;2.58;;;10.40;99.90;;;;;;5055858;28;20047;-86
2022/09/19 04:11:55;;;;;;;11.23;2.13;;;10.40;99.90;;;;;;5051804;28;20046;-86
2022/09/19 04:14:21;;;;;;;19.08;2.00;;;10.30;99.90;;;;;;5038416;28;20043;-86
2022/09/19 04:16:46;;;;;;;12.00;2.88;;;10.30;99.90;;;;;;5043731;28;20041;-87
2022/09/19 04:19:12;;;;;;;15.93;2.95;;;10.30;99.90;;;;;;5071638;28;20070;-87
2022/09/19 04:21:42;;;;;;;13.52;2.00;;;10.40;99.90;;;;;;5041020;28;20037;-86
2022/09/19 04:24:12;;;;;;;8.70;1.98;;;10.30;99.90;;;;;;5035265;28;20174;-87
2022/09/19 04:26:39;;;;;;;11.85;1.90;;;10.40;99.90;;;;;;5060820;28;20036;-86
2022/09/19 04:29:07;;;;;;;12.43;2.03;;;10.30;99.90;;;;;;5052133;28;20044;-87
2022/09/19 04:31:39;;;;;;;11.77;2.10;;;10.20;99.90;;;;;;5048039;28;20047;-87
2022/09/19 04:34:07;;;;;;;8.82;2.10;;;10.20;99.90;;;;;;5048809;28;20488;-87
2022/09/19 04:36:34;;;;;;;8.98;1.55;;;10.20;99.90;;;;;;5063121;28;20036;-87
2022/09/19 04:39:03;;;;;;;15.50;1.92;;;10.10;99.90;;;;;;5071478;28;20052;-87
2022/09/19 04:41:32;;;;;;;10.05;2.03;;;10.10;99.90;;;;;;5080890;28;20040;-87
2022/09/19 04:43:58;;;;;;;12.95;2.05;;;10.10;99.90;;;;;;5078959;28;20040;-87
2022/09/19 04:46:24;;;;;;;13.15;2.17;;;10.00;99.90;;;;;;5080587;28;20492;-87
2022/09/19 04:48:51;;;;;;;9.80;2.10;;;10.00;99.90;;;;;;5082201;28;20043;-87
2022/09/19 04:51:17;;;;;;;13.30;5.18;;;10.00;99.90;;;;;;5049210;28;20040;-87
2022/09/19 04:53:43;;;;;;;13.40;3.10;;;10.00;99.90;;;;;;5049204;28;20044;-87
2022/09/19 04:56:10;;;;;;;17.85;2.63;;;10.10;99.90;;;;;;5077004;28;20090;-87
2022/09/19 04:58:39;;;;;;;12.95;2.33;;;10.00;99.90;;;;;;5063685;28;20497;-86
2022/09/19 05:01:05;;;;;;;15.40;2.25;;;10.00;99.90;;;;;;5042065;28;20113;-87
2022/09/19 05:03:30;;;;;;;11.63;2.25;;;10.00;99.90;;;;;;5067526;28;20420;-86
2022/09/19 05:05:56;;;;;;;9.57;2.25;;;10.00;99.90;;;;;;5062260;28;20045;-87
2022/09/19 05:08:28;;;;;;;11.32;1.75;;;10.00;99.90;;;;;;5072827;28;20101;-87
2022/09/19 05:10:57;;;;;;;9.80;1.90;;;10.00;99.90;;;;;;5081765;28;20036;-88
2022/09/19 05:13:25;;;;;;;14.63;1.88;;;10.00;99.90;;;;;;5068221;28;20064;-88
2022/09/19 05:15:51;;;;;;;10.57;1.90;;;10.00;99.90;;;;;;5080804;28;20114;-88
2022/09/19 05:18:21;;;;;;;11.77;1.95;;;9.90;99.90;;;;;;5081342;28;20047;-87
2022/09/19 05:20:48;;;;;;;11.82;1.73;;;10.00;99.90;;;;;;5074187;28;20051;-88
2022/09/19 05:23:14;;;;;;;12.77;1.95;;;10.10;99.90;;;;;;5079976;28;20087;-87
2022/09/19 05:25:40;;;;;;;16.15;2.30;;;10.00;99.90;;;;;;5081667;28;20047;-87
2022/09/19 05:28:08;;;;;;;15.15;2.63;;;10.10;99.90;;;;;;5064212;28;20058;-87
2022/09/19 05:30:39;;;;;;;12.63;2.35;;;10.00;99.90;;;;;;5064258;28;20066;-87
2022/09/19 05:33:06;;;;;;;12.63;2.20;;;10.00;99.90;;;;;;5082237;28;20070;-88
2022/09/19 05:35:33;;;;;;;10.32;1.98;;;10.00;99.90;;;;;;5098084;28;20115;-88
2022/09/19 05:37:59;;;;;;;11.98;1.85;;;10.00;99.90;;;;;;5061360;28;20060;-87
2022/09/19 05:40:27;;;;;;;11.65;1.95;;;10.00;99.90;;;;;;5055911;28;20040;-88
2022/09/19 05:42:59;;;;;;;10.05;2.00;;;10.00;99.90;;;;;;5079033;28;20052;-88
2022/09/19 05:45:26;;;;;;;8.35;1.80;;;10.00;99.90;;;;;;5047876;28;20093;-88
2022/09/19 05:47:52;;;;;;;10.30;2.22;;;10.00;99.90;;;;;;5064352;28;20044;-88
2022/09/19 05:50:17;;;;;;;9.45;1.63;;;10.00;99.90;;;;;;5065285;28;20039;-87
2022/09/19 05:55:29;;;;;;;12.98;2.25;;;10.00;99.90;;;;;;5080230;28;20373;-87
2022/09/19 05:57:57;;;;;;;13.10;1.80;;;10.00;99.90;;;;;;5038697;28;20040;-87
2022/09/19 06:00:27;;;;;;;11.68;2.15;;;10.00;99.90;;;;;;5075273;28;20048;-87
2022/09/19 06:03:00;;;;;;;11.50;2.10;;;10.00;99.90;;;;;;5061580;28;20098;-88
2022/09/19 06:05:32;;;;;;;10.68;2.00;;;10.10;99.90;;;;;;5078750;28;20420;-89
2022/09/19 06:07:58;;;;;;;13.60;2.20;;;10.10;99.90;;;;;;5063434;28;20043;-88
2022/09/19 06:10:25;;;;;;;13.73;2.45;;;10.10;99.90;;;;;;5071576;28;20058;-88
2022/09/19 06:12:54;;;;;;;7.65;1.75;;;10.10;99.90;;;;;;5073131;28;20651;-87
2022/09/19 06:15:20;;;;;;;10.63;2.17;;;10.10;99.90;;;;;;5039725;28;20048;-88
2022/09/19 06:17:49;;;;;;;14.30;2.53;;;10.20;99.90;;;;;;5072242;28;20067;-88
2022/09/19 06:20:16;;;;;;;19.50;2.40;;;10.20;99.90;;;;;;5045869;28;20123;-88
2022/09/19 06:22:42;;;;;;;16.48;2.15;;;10.20;99.90;;;;;;5064310;28;20110;-88
2022/09/19 06:25:08;;;;;;;9.82;2.10;;;10.20;99.90;;;;;;5056897;28;20094;-86
2022/09/19 06:27:36;;;;;;;11.23;1.98;;;10.40;99.90;;;;;;5067423;28;20485;-87
2022/09/19 06:30:02;;;;;;;15.75;2.60;;;10.20;99.90;;;;;;5069948;28;20037;-88
2022/09/19 06:32:28;;;;;;;10.70;2.20;;;10.30;99.90;;;;;;5079384;28;20067;-87
2022/09/19 06:34:54;;;;;;;14.85;2.20;;;10.50;99.90;;;;;;5056263;28;20040;-85
2022/09/19 06:37:20;;;;;;;11.20;2.30;;;10.40;99.90;;;;;;5006313;28;1099461;-89
2022/09/19 06:39:46;;;;;;;13.77;2.63;;;10.40;99.90;;;;;;5057106;28;20052;-85
2022/09/19 06:42:12;;;;;;;11.45;1.70;;;10.50;99.90;;;;;;5074159;28;20124;-86
2022/09/19 06:44:38;;;;;;;11.57;2.10;;;10.50;99.90;;;;;;5055743;28;20068;-86
2022/09/19 06:47:05;;;;;;;14.02;2.20;;;10.60;99.90;;;;;;5076698;28;20103;-86
2022/09/19 06:49:30;;;;;;;7.78;1.63;;;10.60;99.90;;;;;;5078637;28;20084;-84
2022/09/19 06:51:57;;;;;;;10.77;2.10;;;10.80;99.90;;;;;;5051119;28;20036;-87
2022/09/19 06:54:23;;;;;;;8.00;1.77;;;10.70;99.90;;;;;;5040323;28;20503;-84
2022/09/19 06:56:49;;;;;;;11.40;1.88;;;10.70;99.90;;;;;;5055980;28;20559;-87
2022/09/19 06:59:17;;;;;;;13.15;2.75;;;10.80;99.90;;;;;;5048731;28;20047;-84
2022/09/19 07:01:45;;;;;;;13.27;1.73;;;10.90;99.90;;;;;;5045393;28;20578;-86
2022/09/19 07:04:11;;;;;;;16.02;2.25;;;10.90;99.90;;;;;;5061524;28;20042;-88
2022/09/19 07:06:37;;;;;;;11.15;1.75;;;11.00;99.90;;;;;;5039960;28;20075;-87
2022/09/19 07:09:04;;;;;;;11.55;2.55;;;11.20;99.90;;;;;;5062007;28;20502;-87
2022/09/19 07:11:30;;;;;;;11.02;2.05;;;11.10;99.90;;;;;;5049962;28;20115;-88
2022/09/19 07:13:56;;;;;;;9.80;1.48;;;11.20;99.90;;;;;;5063928;28;20040;-87
2022/09/19 07:16:22;;;;;;;13.57;1.92;;;11.20;99.90;;;;;;5073680;28;20032;-87
2022/09/19 07:18:48;;;;;;;7.38;2.10;;;11.40;99.90;;;;;;5038561;28;20043;-88
2022/09/19 07:21:13;;;;;;;9.95;2.15;;;11.40;99.90;;;;;;5079838;28;20489;-88
2022/09/19 07:23:39;;;;;;;13.05;1.83;;;11.40;99.90;;;;;;5057708;28;20492;-86
2022/09/19 07:26:05;;;;;;;7.78;2.10;;;11.50;99.90;;;;;;5057031;28;20128;-86
2022/09/19 07:28:30;;;;;;;14.43;1.95;;;11.60;99.90;;;;;;5062929;28;20037;-86
2022/09/19 07:31:00;;;;;;;10.18;1.73;;;11.60;99.90;;;;;;5058414;28;20053;-87
2022/09/19 07:33:25;;;;;;;7.45;1.70;;;11.70;99.90;;;;;;5080774;28;20050;-87
2022/09/19 07:35:54;;;;;;;8.10;1.67;;;11.80;99.90;;;;;;5083087;28;20032;-87
2022/09/19 07:38:22;;;;;;;8.15;1.65;;;12.00;99.90;;;;;;5082146;28;20069;-87
2022/09/19 07:40:48;;;;;;;10.95;1.45;;;12.10;99.90;;;;;;5058737;28;20040;-86
2022/09/19 07:43:16;;;;;;;10.05;1.98;;;12.20;99.90;;;;;;5043682;28;20040;-87
2022/09/19 07:45:47;;;;;;;6.47;1.40;;;12.30;99.90;;;;;;5061868;28;20027;-85
2022/09/19 07:48:14;;;;;;;9.57;1.60;;;12.30;99.90;;;;;;5062806;28;20507;-86
2022/09/19 07:50:41;;;;;;;8.93;1.75;;;12.40;99.90;;;;;;5053187;28;20040;-85
2022/09/19 07:53:12;;;;;;;7.25;1.67;;;12.40;99.90;;;;;;5050624;28;20040;-86
2022/09/19 07:55:41;;;;;;;9.25;1.70;;;12.50;99.90;;;;;;5062494;28;20093;-87
2022/09/19 07:58:07;;;;;;;12.98;1.85;;;12.60;99.90;;;;;;5062329;28;20043;-86
2022/09/19 08:00:35;;;;;;;8.10;1.85;;;12.60;99.90;;;;;;5060724;28;20042;-87
2022/09/19 08:03:05;;;;;;;8.50;1.80;;;12.70;99.90;;;;;;5059094;28;20051;-87
2022/09/19 08:05:36;;;;;;;9.27;1.60;;;12.80;99.90;;;;;;5057311;28;20090;-87
2022/09/19 08:08:02;;;;;;;9.15;1.67;;;12.80;99.90;;;;;;5075817;28;20044;-86
2022/09/19 08:10:30;;;;;;;13.05;1.77;;;12.90;99.90;;;;;;5027121;28;20036;-86
2022/09/19 08:13:00;;;;;;;13.20;2.60;;;12.90;99.90;;;;;;5076809;28;20051;-86
2022/09/19 08:15:26;;;;;;;8.18;1.85;;;13.00;99.90;;;;;;5077361;28;20040;-87
2022/09/19 08:18:00;;;;;;;10.70;1.55;;;13.00;99.90;;;;;;5092966;28;20051;-86
2022/09/19 08:20:27;;;;;;;13.55;2.53;;;13.10;99.90;;;;;;5060567;28;20083;-86
2022/09/19 08:23:00;;;;;;;10.23;1.67;;;13.10;99.90;;;;;;5059945;28;20056;-86
2022/09/19 08:25:28;;;;;;;8.80;1.80;;;13.20;99.90;;;;;;5061257;28;20124;-86
2022/09/19 08:27:57;;;;;;;6.25;2.10;;;13.30;99.90;;;;;;5059453;28;20068;-86
2022/09/19 08:30:26;;;;;;;7.63;1.40;;;13.30;99.90;;;;;;5056834;28;20040;-86
2022/09/19 08:32:52;;;;;;;12.48;1.70;;;13.30;99.90;;;;;;5043667;28;20044;-86
2022/09/19 08:35:19;;;;;;;12.57;2.00;;;13.30;99.90;;;;;;5081852;28;20067;-86
2022/09/19 08:37:46;;;;;;;7.03;1.65;;;13.40;99.90;;;;;;5066996;28;20045;-86
2022/09/19 08:40:44;;;;;;;12.80;1.77;;;13.40;99.90;;;;;;5041144;28;20050;-87
2022/09/19 08:43:48;;;;;;;9.27;1.60;;;13.50;99.90;;;;;;5073918;28;20626;-85
2022/09/19 08:46:40;;;;;;;10.88;1.90;;;13.60;99.90;;;;;;5052416;28;20136;-85
2022/09/19 08:49:44;;;;;;;9.43;1.35;;;13.70;99.90;;;;;;5071133;28;20051;-86
2022/09/19 08:52:30;;;;;;;11.90;1.60;;;13.70;99.90;;;;;;5084650;28;20048;-83
2022/09/19 08:54:57;;;;;;;10.25;2.05;;;13.80;99.90;;;;;;5071485;28;20047;-84
2022/09/19 08:57:33;;;;;;;15.05;2.20;;;13.90;99.90;;;;;;5063426;28;20044;-86
2022/09/19 09:00:07;;;;;;;14.30;1.92;;;13.90;99.90;;;;;;5065109;28;20546;-85
2022/09/19 09:02:43;;;;;;;12.45;1.90;;;13.90;99.90;;;;;;5071367;28;20087;-85
2022/09/19 09:05:37;;;;;;;9.88;1.85;;;14.00;99.90;;;;;;5073436;28;20036;-85
2022/09/19 09:08:35;;;;;;;8.02;1.70;;;14.00;99.90;;;;;;5070225;28;20047;-86
2022/09/19 09:11:39;;;;;;;8.95;1.60;;;14.10;99.90;;;;;;5055466;28;20052;-85
2022/09/19 09:14:28;;;;;;;7.93;2.17;;;14.10;99.90;;;;;;5061186;28;20377;-85
2022/09/19 09:17:23;;;;;;;8.50;1.67;;;14.20;99.90;;;;;;5082644;28;20041;-87
2022/09/19 09:20:28;;;;;;;11.70;2.13;;;14.20;99.90;;;;;;5065853;28;20039;-85
2022/09/19 09:23:11;;;;;;;8.45;2.00;;;14.30;99.90;;;;;;5032355;28;20523;-85
2022/09/19 09:25:42;;;;;;;10.40;1.73;;;14.40;99.90;;;;;;5071539;28;20127;-84
2022/09/19 09:28:40;;;;;;;9.30;1.90;;;14.50;99.90;;;;;;5085884;28;20051;-85
2022/09/19 09:31:25;;;;;;;11.07;2.10;;;14.60;99.90;;;;;;5023523;28;20098;-85
2022/09/19 09:33:58;;;;;;;8.38;1.70;;;14.70;99.90;;;;;;5058199;28;20192;-86
2022/09/19 09:36:31;;;;;;;9.63;1.88;;;14.80;99.90;;;;;;5060793;28;20502;-87
2022/09/19 09:39:11;;;;;;;12.05;2.53;;;15.00;99.90;;;;;;5076845;28;20056;-86
2022/09/19 09:41:50;;;;;;;11.13;1.58;;;14.90;99.90;;;;;;5065052;28;20139;-86
2022/09/19 09:44:52;;;;;;;7.70;1.30;;;15.10;99.90;;;;;;5050752;28;20046;-86
2022/09/19 09:47:43;;;;;;;9.73;1.60;;;15.20;99.90;;;;;;5050601;28;20044;-84
2022/09/19 09:50:31;;;;;;;13.45;2.13;;;15.30;99.90;;;;;;5077867;28;20408;-88
2022/09/19 09:53:18;;;;;;;8.52;1.63;;;15.40;99.90;;;;;;5088664;28;20062;-89
2022/09/19 09:56:17;;;;;;;7.68;1.80;;;15.50;99.90;;;;;;5079639;28;20123;-87
2022/09/19 10:03:34;;;;;;;13.95;2.92;;;15.50;99.90;;;;;;5075286;28;20048;-89
2022/09/19 10:05:25;;;;;;;;;;;15.70;99.90;;;;;;5058047;28;20039;-87
2022/09/19 10:08:10;;;;;;;10.23;2.40;;;15.70;99.90;;;;;;5062713;28;19924;-87
2022/09/19 10:10:38;;;;;;;8.93;1.70;;;15.60;99.90;;;;;;5074833;28;20040;-85
2022/09/19 10:13:27;;;;;;;7.85;1.90;;;15.20;99.90;;;;;;5079964;28;20064;-90
2022/09/19 10:16:02;;;;;;;8.63;1.83;;;14.80;99.90;;;;;;5072972;28;20462;-90
2022/09/19 10:18:41;;;;;;;7.53;1.70;;;14.30;99.90;;;;;;5056665;28;20472;-89
2022/09/19 10:21:07;;;;;;;10.80;1.58;;;14.10;99.90;;;;;;5061011;28;20309;-88
2022/09/19 10:23:33;;;;;;;10.88;1.70;;;14.00;99.90;;;;;;5076770;28;20084;-87
2022/09/19 10:26:03;;;;;;;7.60;1.55;;;14.10;99.90;;;;;;5060767;28;20443;-87
2022/09/19 10:28:43;;;;;;;6.72;1.40;;;14.00;99.90;;;;;;5075710;28;20131;-87
2022/09/19 10:31:28;;;;;;;7.38;1.10;;;14.10;99.90;;;;;;5076753;28;20124;-87
2022/09/19 10:33:53;;;;;;;7.05;1.33;;;14.00;99.90;;;;;;5053997;28;20044;-86
2022/09/19 10:36:22;;;;;;;7.60;1.75;;;14.00;99.90;;;;;;5061543;28;20399;-85
2022/09/19 10:38:54;;;;;;;6.78;1.30;;;14.00;99.90;;;;;;5065577;28;20068;-85
2022/09/19 10:41:22;;;;;;;7.25;1.30;;;14.00;99.90;;;;;;5057655;28;20048;-87
2022/09/19 10:43:54;;;;;;;8.93;1.70;;;14.00;99.90;;;;;;5054686;28;20141;-86
2022/09/19 10:46:31;;;;;;;5.45;1.23;;;14.00;99.90;;;;;;5037155;28;20052;-85
2022/09/19 10:48:58;;;;;;;8.90;1.20;;;14.10;99.90;;;;;;5043093;28;20716;-85
2022/09/19 10:51:35;;;;;;;9.55;2.08;;;14.10;99.90;;;;;;5057346;28;20463;-85
2022/09/19 10:54:11;;;;;;;10.90;1.92;;;14.10;99.90;;;;;;5057484;28;20044;-86
2022/09/19 10:56:39;;;;;;;8.93;1.65;;;14.20;99.90;;;;;;5048306;28;20040;-85
2022/09/19 10:59:25;;;;;;;11.13;2.13;;;14.20;99.90;;;;;;5057215;28;20179;-85
2022/09/19 11:02:19;;;;;;;7.47;1.30;;;14.20;99.90;;;;;;5056842;28;20516;-85
2022/09/19 11:05:04;;;;;;;10.60;1.80;;;14.30;99.90;;;;;;5046694;28;20167;-86
2022/09/19 11:07:48;;;;;;;9.02;2.33;;;14.40;99.90;;;;;;5035005;28;20043;-85
2022/09/19 11:10:37;;;;;;;10.15;1.95;;;14.40;99.90;;;;;;5056004;28;20040;-86
2022/09/19 11:13:20;;;;;;;7.10;1.55;;;14.40;99.90;;;;;;5033458;28;20040;-86
2022/09/19 11:15:55;;;;;;;7.90;1.60;;;14.30;99.90;;;;;;5029995;28;20497;-92
2022/09/19 11:18:36;;;;;;;10.15;1.95;;;14.10;99.90;;;;;;5057586;28;20048;-88
2022/09/19 11:21:07;;;;;;;5.15;1.17;;;13.90;99.90;;;;;;5039779;28;20500;-89
2022/09/19 11:23:44;;;;;;;6.25;1.20;;;13.70;99.90;;;;;;5055195;28;20127;-91
2022/09/19 11:26:24;;;;;;;9.57;1.48;;;13.70;99.90;;;;;;5051035;28;20045;-90
2022/09/19 11:29:12;;;;;;;6.68;1.48;;;13.50;99.90;;;;;;5041571;28;20046;-90
2022/09/19 11:31:47;;;;;;;6.97;1.20;;;13.40;99.90;;;;;;5035157;28;20084;-90
2022/09/19 11:34:27;;;;;;;7.25;1.63;;;13.30;99.90;;;;;;5050852;28;20037;-91
2022/09/19 11:37:21;;;;;;;7.97;1.70;;;13.20;99.90;;;;;;5056095;28;20043;-90
2022/09/19 11:40:19;;;;;;;9.88;2.00;;;13.30;99.90;;;;;;5037819;28;20132;-91
2022/09/19 11:43:22;;;;;;;9.07;1.60;;;13.20;99.90;;;;;;5033684;28;20055;-89
2022/09/19 11:45:56;;;;;;;8.30;1.58;;;13.20;99.90;;;;;;5028266;28;20044;-90
2022/09/19 11:48:50;;;;;;;5.88;0.98;;;13.20;99.90;;;;;;5054987;28;20115;-92
2022/09/19 11:51:37;;;;;;;7.32;1.60;;;13.10;99.90;;;;;;5075428;28;20119;-92
2022/09/19 11:54:27;;;;;;;7.25;1.30;;;13.10;99.90;;;;;;5036993;28;20051;-90
2022/09/19 11:56:53;;;;;;;5.70;1.15;;;13.10;99.90;;;;;;5057680;28;20041;-89
2022/09/19 11:59:42;;;;;;;6.28;0.98;;;13.10;99.90;;;;;;5054293;28;21893;-89
2022/09/19 12:02:27;;;;;;;5.95;1.50;;;13.20;99.90;;;;;;5029124;28;20074;-89
2022/09/19 12:05:15;;;;;;;6.20;1.15;;;13.30;99.90;;;;;;5044850;28;20098;-88
2022/09/19 12:08:14;;;;;;;7.47;1.65;;;13.40;99.90;;;;;;5043395;28;20171;-88
2022/09/19 12:10:49;;;;;;;7.70;1.45;;;13.50;99.90;;;;;;5055195;28;20056;-87
2022/09/19 12:13:42;;;;;;;10.82;1.67;;;13.60;99.90;;;;;;5058395;28;20171;-87
2022/09/19 12:16:15;;;;;;;10.35;1.65;;;13.70;99.90;;;;;;5063309;28;20038;-85
2022/09/19 12:18:52;;;;;;;9.20;1.60;;;13.80;99.90;;;;;;5071022;28;20043;-86
2022/09/19 12:21:22;;;;;;;13.02;1.58;;;13.90;99.90;;;;;;5056745;28;20032;-85
2022/09/19 12:26:49;;;;;;;8.68;1.50;;;14.10;99.90;;;;;;5044775;28;20041;-85
2022/09/19 12:29:38;;;;;;;11.05;1.98;;;14.10;99.90;;;;;;5049298;28;20103;-86
2022/09/19 12:32:15;;;;;;;9.25;1.80;;;14.10;99.90;;;;;;5046426;28;20146;-86
2022/09/19 12:34:49;;;;;;;7.40;1.80;;;14.10;99.90;;;;;;5047210;28;20396;-86
2022/09/19 12:37:30;;;;;;;6.78;1.65;;;14.10;99.90;;;;;;5060809;28;20045;-85
2022/09/19 12:40:28;;;;;;;9.32;2.03;;;14.20;99.90;;;;;;5069082;28;20052;-85
2022/09/19 12:43:12;;;;;;;9.13;2.13;;;14.30;99.90;;;;;;5083400;28;20109;-85
2022/09/19 12:46:10;;;;;;;7.93;1.77;;;14.50;99.90;;;;;;5075745;28;20671;-86
2022/09/19 12:48:50;;;;;;;8.90;2.30;;;14.70;99.90;;;;;;5058435;28;20357;-86
2022/09/19 12:51:25;;;;;;;8.75;1.60;;;14.80;99.90;;;;;;5078511;28;20089;-85
2022/09/19 12:54:00;;;;;;;10.05;1.60;;;14.80;99.90;;;;;;5080179;28;20043;-85
2022/09/19 12:56:42;;;;;;;5.45;1.48;;;14.90;99.90;;;;;;5061602;28;20040;-84
2022/09/19 12:59:17;;;;;;;10.10;2.38;;;14.90;99.90;;;;;;5078213;28;20054;-86
2022/09/19 13:01:56;;;;;;;9.68;1.77;;;15.10;99.90;;;;;;5074432;28;20051;-85
2022/09/19 13:05:00;;;;;;;13.20;1.67;;;15.20;99.90;;;;;;5076604;28;20040;-86
2022/09/19 13:07:59;;;;;;;10.30;2.20;;;15.20;99.90;;;;;;5026667;28;20124;-86
2022/09/19 13:10:25;;;;;;;13.15;2.38;;;15.20;99.90;;;;;;5059937;28;20108;-86
2022/09/19 13:13:47;;;;;;;11.65;2.30;;;15.10;99.90;;;;;;5079635;28;20522;-85
2022/09/19 13:16:16;;;;;;;11.30;2.47;;;15.20;99.90;;;;;;5008131;28;20068;-86
2022/09/19 13:24:50;;;;;;;;;;;15.20;99.90;;;;;;5071119;28;20054;-86
2022/09/19 13:27:16;;;;;;;18.48;2.50;;;15.20;99.90;;;;;;5073601;28;19974;-86
2022/09/19 13:29:45;;;;;;;11.65;2.25;;;15.10;99.90;;;;;;5073459;28;20111;-86
2022/09/19 13:32:52;;;;;;;8.55;2.13;;;15.10;99.90;;;;;;5062403;28;20044;-85
2022/09/19 13:35:22;;;;;;;6.30;1.45;;;15.10;99.90;;;;;;5059872;28;20051;-85
2022/09/19 13:37:50;;;;;;;12.23;1.80;;;15.20;99.90;;;;;;5063455;28;20040;-85